sensor_id;sensor_type;location;lat;lon;timestamp;pressure;altitude;pressure_sealevel;temperature
61595;BMP280;47397;48.194;11.632;2023-05-10T00:00:13;95353.47;;;14.06
61595;BMP280;47397;48.194;11.632;2023-05-10T00:01:13;95366.34;;;14.04
61595;BMP280;47397;48.194;11.632;2023-05-10T00:02:14;95359.16;;;13.94
61595;BMP280;47397;48.194;11.632;2023-05-10T00:03:14;95351.56;;;13.92
61595;BMP280;47397;48.194;11.632;2023-05-10T00:04:15;95356.69;;;13.92
61595;BMP280;47397;48.194;11.632;2023-05-10T00:05:15;95348.47;;;13.86
61595;BMP280;47397;48.194;11.632;2023-05-10T00:06:16;95356.59;;;13.94
61595;BMP280;47397;48.194;11.632;2023-05-10T00:07:17;95351.84;;;13.86
61595;BMP280;47397;48.194;11.632;2023-05-10T00:08:18;95348.69;;;13.81
61595;BMP280;47397;48.194;11.632;2023-05-10T00:09:18;95354.31;;;13.69
61595;BMP280;47397;48.194;11.632;2023-05-10T00:10:19;95349.59;;;13.80
61595;BMP280;47397;48.194;11.632;2023-05-10T00:11:19;95352.00;;;13.83
61595;BMP280;47397;48.194;11.632;2023-05-10T00:12:20;95353.97;;;13.95
61595;BMP280;47397;48.194;11.632;2023-05-10T00:13:20;95353.38;;;13.90
61595;BMP280;47397;48.194;11.632;2023-05-10T00:14:21;95353.78;;;14.00
61595;BMP280;47397;48.194;11.632;2023-05-10T00:15:21;95358.88;;;14.00
61595;BMP280;47397;48.194;11.632;2023-05-10T00:16:22;95354.81;;;13.96
61595;BMP280;47397;48.194;11.632;2023-05-10T00:17:22;95354.66;;;13.99
61595;BMP280;47397;48.194;11.632;2023-05-10T00:18:23;95353.31;;;13.92
61595;BMP280;47397;48.194;11.632;2023-05-10T00:19:23;95356.28;;;13.83
61595;BMP280;47397;48.194;11.632;2023-05-10T00:20:23;95350.47;;;13.79
61595;BMP280;47397;48.194;11.632;2023-05-10T00:21:24;95350.97;;;13.87
61595;BMP280;47397;48.194;11.632;2023-05-10T00:22:26;95351.50;;;13.94
61595;BMP280;47397;48.194;11.632;2023-05-10T00:23:26;95355.84;;;13.92
61595;BMP280;47397;48.194;11.632;2023-05-10T00:24:27;95348.66;;;14.00
61595;BMP280;47397;48.194;11.632;2023-05-10T00:25:27;95348.03;;;13.95
61595;BMP280;47397;48.194;11.632;2023-05-10T00:26:28;95349.97;;;13.90
61595;BMP280;47397;48.194;11.632;2023-05-10T00:27:28;95340.59;;;13.90
61595;BMP280;47397;48.194;11.632;2023-05-10T00:28:28;95350.19;;;14.04
61595;BMP280;47397;48.194;11.632;2023-05-10T00:29:29;95348.66;;;14.00
61595;BMP280;47397;48.194;11.632;2023-05-10T00:30:29;95344.25;;;14.03
61595;BMP280;47397;48.194;11.632;2023-05-10T00:31:30;95348.22;;;14.09
61595;BMP280;47397;48.194;11.632;2023-05-10T00:32:30;95338.97;;;14.06
61595;BMP280;47397;48.194;11.632;2023-05-10T00:33:31;95339.81;;;14.07
61595;BMP280;47397;48.194;11.632;2023-05-10T00:34:31;95346.09;;;14.00
61595;BMP280;47397;48.194;11.632;2023-05-10T00:35:32;95348.13;;;13.93
61595;BMP280;47397;48.194;11.632;2023-05-10T00:36:32;95346.19;;;13.80
61595;BMP280;47397;48.194;11.632;2023-05-10T00:37:34;95338.16;;;13.68
61595;BMP280;47397;48.194;11.632;2023-05-10T00:38:34;95340.94;;;13.83
61595;BMP280;47397;48.194;11.632;2023-05-10T00:39:35;95347.84;;;13.99
61595;BMP280;47397;48.194;11.632;2023-05-10T00:40:35;95343.97;;;13.91
61595;BMP280;47397;48.194;11.632;2023-05-10T00:41:36;95343.44;;;13.84
61595;BMP280;47397;48.194;11.632;2023-05-10T00:42:37;95339.91;;;13.87
61595;BMP280;47397;48.194;11.632;2023-05-10T00:43:38;95341.06;;;13.98
61595;BMP280;47397;48.194;11.632;2023-05-10T00:44:38;95339.78;;;13.90
61595;BMP280;47397;48.194;11.632;2023-05-10T00:45:39;95342.53;;;13.85
61595;BMP280;47397;48.194;11.632;2023-05-10T00:46:40;95337.50;;;13.84
61595;BMP280;47397;48.194;11.632;2023-05-10T00:47:41;95342.47;;;13.87
61595;BMP280;47397;48.194;11.632;2023-05-10T00:48:42;95330.31;;;13.92
61595;BMP280;47397;48.194;11.632;2023-05-10T00:49:43;95334.94;;;13.84
61595;BMP280;47397;48.194;11.632;2023-05-10T00:50:44;95339.00;;;13.88
61595;BMP280;47397;48.194;11.632;2023-05-10T00:51:45;95332.38;;;13.84
61595;BMP280;47397;48.194;11.632;2023-05-10T00:52:47;95331.19;;;13.72
61595;BMP280;47397;48.194;11.632;2023-05-10T00:53:48;95332.94;;;13.71
61595;BMP280;47397;48.194;11.632;2023-05-10T00:54:49;95331.41;;;13.86
61595;BMP280;47397;48.194;11.632;2023-05-10T00:55:50;95326.03;;;13.92
61595;BMP280;47397;48.194;11.632;2023-05-10T00:56:51;95334.81;;;13.87
61595;BMP280;47397;48.194;11.632;2023-05-10T00:57:52;95335.41;;;13.92
61595;BMP280;47397;48.194;11.632;2023-05-10T00:58:52;95330.31;;;13.92
61595;BMP280;47397;48.194;11.632;2023-05-10T00:59:53;95332.09;;;13.90
61595;BMP280;47397;48.194;11.632;2023-05-10T01:00:54;95334.31;;;13.79
61595;BMP280;47397;48.194;11.632;2023-05-10T01:01:55;95337.56;;;13.82
61595;BMP280;47397;48.194;11.632;2023-05-10T01:02:55;95332.25;;;13.87
61595;BMP280;47397;48.194;11.632;2023-05-10T01:03:56;95330.94;;;13.78
61595;BMP280;47397;48.194;11.632;2023-05-10T01:04:56;95324.66;;;13.66
61595;BMP280;47397;48.194;11.632;2023-05-10T01:05:57;95335.97;;;13.80
61595;BMP280;47397;48.194;11.632;2023-05-10T01:06:57;95327.50;;;13.79
61595;BMP280;47397;48.194;11.632;2023-05-10T01:07:59;95331.19;;;13.72
61595;BMP280;47397;48.194;11.632;2023-05-10T01:08:59;95326.56;;;13.61
61595;BMP280;47397;48.194;11.632;2023-05-10T01:10:00;95327.63;;;13.76
61595;BMP280;47397;48.194;11.632;2023-05-10T01:11:00;95329.97;;;13.81
61595;BMP280;47397;48.194;11.632;2023-05-10T01:12:01;95328.09;;;13.84
61595;BMP280;47397;48.194;11.632;2023-05-10T01:13:02;95331.88;;;13.94
61595;BMP280;47397;48.194;11.632;2023-05-10T01:14:03;95333.06;;;13.87
61595;BMP280;47397;48.194;11.632;2023-05-10T01:15:05;95330.59;;;13.86
61595;BMP280;47397;48.194;11.632;2023-05-10T01:16:07;95327.47;;;13.60
61595;BMP280;47397;48.194;11.632;2023-05-10T01:17:07;95331.53;;;13.64
61595;BMP280;47397;48.194;11.632;2023-05-10T01:18:08;95327.63;;;13.57
61595;BMP280;47397;48.194;11.632;2023-05-10T01:19:12;95328.84;;;13.49
61595;BMP280;47397;48.194;11.632;2023-05-10T01:20:17;95327.94;;;13.68
61595;BMP280;47397;48.194;11.632;2023-05-10T01:21:27;95328.22;;;13.62
61595;BMP280;47397;48.194;11.632;2023-05-10T01:22:44;95325.53;;;13.65
61595;BMP280;47397;48.194;11.632;2023-05-10T01:24:27;95333.75;;;13.72
61595;BMP280;47397;48.194;11.632;2023-05-10T01:25:49;95326.66;;;13.79
61595;BMP280;47397;48.194;11.632;2023-05-10T01:27:07;95334.13;;;13.83
61595;BMP280;47397;48.194;11.632;2023-05-10T01:28:26;95333.13;;;13.67
61595;BMP280;47397;48.194;11.632;2023-05-10T01:29:49;95329.34;;;13.75
61595;BMP280;47397;48.194;11.632;2023-05-10T01:31:18;95330.44;;;13.70
61595;BMP280;47397;48.194;11.632;2023-05-10T01:32:28;95328.09;;;13.65
61595;BMP280;47397;48.194;11.632;2023-05-10T01:33:32;95326.22;;;13.69
61595;BMP280;47397;48.194;11.632;2023-05-10T01:34:40;95329.47;;;13.54
61595;BMP280;47397;48.194;11.632;2023-05-10T01:35:47;95327.00;;;13.52
61595;BMP280;47397;48.194;11.632;2023-05-10T01:36:55;95332.38;;;13.46
61595;BMP280;47397;48.194;11.632;2023-05-10T01:38:07;95330.44;;;13.51
61595;BMP280;47397;48.194;11.632;2023-05-10T01:39:11;95325.28;;;13.53
61595;BMP280;47397;48.194;11.632;2023-05-10T01:40:20;95324.91;;;13.60
61595;BMP280;47397;48.194;11.632;2023-05-10T01:41:28;95324.91;;;13.60
61595;BMP280;47397;48.194;11.632;2023-05-10T01:42:36;95331.00;;;13.58
61595;BMP280;47397;48.194;11.632;2023-05-10T01:43:55;95336.09;;;13.58
61595;BMP280;47397;48.194;11.632;2023-05-10T01:45:00;95326.09;;;13.53
61595;BMP280;47397;48.194;11.632;2023-05-10T01:46:06;95330.81;;;13.23
61595;BMP280;47397;48.194;11.632;2023-05-10T01:47:10;95340.53;;;13.34
61595;BMP280;47397;48.194;11.632;2023-05-10T01:48:14;95331.69;;;13.42
61595;BMP280;47397;48.194;11.632;2023-05-10T01:49:19;95339.91;;;13.49
61595;BMP280;47397;48.194;11.632;2023-05-10T01:50:24;95332.09;;;13.52
61595;BMP280;47397;48.194;11.632;2023-05-10T01:51:30;95327.13;;;13.49
61595;BMP280;47397;48.194;11.632;2023-05-10T01:52:33;95332.59;;;13.41
61595;BMP280;47397;48.194;11.632;2023-05-10T01:53:37;95335.28;;;13.38
61595;BMP280;47397;48.194;11.632;2023-05-10T01:54:42;95335.56;;;13.51
61595;BMP280;47397;48.194;11.632;2023-05-10T01:55:46;95335.91;;;13.23
61595;BMP280;47397;48.194;11.632;2023-05-10T01:56:50;95334.25;;;13.42
61595;BMP280;47397;48.194;11.632;2023-05-10T01:58:02;95326.16;;;13.52
61595;BMP280;47397;48.194;11.632;2023-05-10T01:59:06;95331.81;;;13.58
61595;BMP280;47397;48.194;11.632;2023-05-10T02:00:10;95328.50;;;13.56
61595;BMP280;47397;48.194;11.632;2023-05-10T02:01:11;95333.41;;;13.42
61595;BMP280;47397;48.194;11.632;2023-05-10T02:02:14;95331.47;;;13.47
61595;BMP280;47397;48.194;11.632;2023-05-10T02:03:18;95332.00;;;13.35
61595;BMP280;47397;48.194;11.632;2023-05-10T02:04:22;95329.22;;;13.21
61595;BMP280;47397;48.194;11.632;2023-05-10T02:05:24;95329.13;;;13.42
61595;BMP280;47397;48.194;11.632;2023-05-10T02:06:25;95330.31;;;13.54
61595;BMP280;47397;48.194;11.632;2023-05-10T02:07:28;95332.38;;;13.46
61595;BMP280;47397;48.194;11.632;2023-05-10T02:08:29;95326.72;;;13.39
61595;BMP280;47397;48.194;11.632;2023-05-10T02:09:32;95337.03;;;13.36
61595;BMP280;47397;48.194;11.632;2023-05-10T02:10:34;95335.06;;;13.43
61595;BMP280;47397;48.194;11.632;2023-05-10T02:11:37;95333.72;;;13.34
61595;BMP280;47397;48.194;11.632;2023-05-10T02:12:41;95332.75;;;13.37
61595;BMP280;47397;48.194;11.632;2023-05-10T02:13:42;95334.41;;;13.38
61595;BMP280;47397;48.194;11.632;2023-05-10T02:14:44;95337.94;;;13.35
61595;BMP280;47397;48.194;11.632;2023-05-10T02:15:47;95333.22;;;13.47
61595;BMP280;47397;48.194;11.632;2023-05-10T02:16:49;95337.22;;;13.52
61595;BMP280;47397;48.194;11.632;2023-05-10T02:17:52;95332.25;;;13.49
61595;BMP280;47397;48.194;11.632;2023-05-10T02:18:57;95332.09;;;13.52
61595;BMP280;47397;48.194;11.632;2023-05-10T02:19:58;95334.59;;;13.54
61595;BMP280;47397;48.194;11.632;2023-05-10T02:21:00;95325.97;;;13.56
61595;BMP280;47397;48.194;11.632;2023-05-10T02:22:02;95332.66;;;13.59
61595;BMP280;47397;48.194;11.632;2023-05-10T02:23:03;95339.63;;;13.55
61595;BMP280;47397;48.194;11.632;2023-05-10T02:24:05;95327.53;;;13.59
61595;BMP280;47397;48.194;11.632;2023-05-10T02:25:07;95334.25;;;13.61
61595;BMP280;47397;48.194;11.632;2023-05-10T02:26:08;95331.97;;;13.55
61595;BMP280;47397;48.194;11.632;2023-05-10T02:27:11;95332.94;;;13.53
61595;BMP280;47397;48.194;11.632;2023-05-10T02:28:12;95331.97;;;13.55
61595;BMP280;47397;48.194;11.632;2023-05-10T02:29:14;95325.81;;;13.59
61595;BMP280;47397;48.194;11.632;2023-05-10T02:30:16;95325.75;;;13.61
61595;BMP280;47397;48.194;11.632;2023-05-10T02:31:18;95323.13;;;13.62
61595;BMP280;47397;48.194;11.632;2023-05-10T02:32:21;95333.34;;;13.62
61595;BMP280;47397;48.194;11.632;2023-05-10T02:33:23;95328.66;;;13.53
61595;BMP280;47397;48.194;11.632;2023-05-10T02:34:26;95334.16;;;13.44
61595;BMP280;47397;48.194;11.632;2023-05-10T02:35:28;95334.03;;;13.47
61595;BMP280;47397;48.194;11.632;2023-05-10T02:36:29;95332.09;;;13.52
61595;BMP280;47397;48.194;11.632;2023-05-10T02:37:30;95325.88;;;13.58
61595;BMP280;47397;48.194;11.632;2023-05-10T02:38:33;95334.31;;;13.60
61595;BMP280;47397;48.194;11.632;2023-05-10T02:39:34;95335.69;;;13.48
61595;BMP280;47397;48.194;11.632;2023-05-10T02:40:36;95337.09;;;13.35
61595;BMP280;47397;48.194;11.632;2023-05-10T02:41:37;95344.06;;;13.31
61595;BMP280;47397;48.194;11.632;2023-05-10T02:42:41;95330.66;;;13.47
61595;BMP280;47397;48.194;11.632;2023-05-10T02:43:43;95329.63;;;13.51
61595;BMP280;47397;48.194;11.632;2023-05-10T02:44:48;95331.56;;;13.25
61595;BMP280;47397;48.194;11.632;2023-05-10T02:45:48;95326.38;;;13.47
61595;BMP280;47397;48.194;11.632;2023-05-10T02:46:49;95329.47;;;13.54
61595;BMP280;47397;48.194;11.632;2023-05-10T02:47:50;95329.00;;;13.45
61595;BMP280;47397;48.194;11.632;2023-05-10T02:48:50;95331.97;;;13.55
61595;BMP280;47397;48.194;11.632;2023-05-10T02:49:52;95336.97;;;13.38
61595;BMP280;47397;48.194;11.632;2023-05-10T02:50:54;95334.16;;;13.44
61595;BMP280;47397;48.194;11.632;2023-05-10T02:52:00;95337.34;;;13.49
61595;BMP280;47397;48.194;11.632;2023-05-10T02:53:05;95336.03;;;13.40
61595;BMP280;47397;48.194;11.632;2023-05-10T02:54:10;95336.75;;;13.24
61595;BMP280;47397;48.194;11.632;2023-05-10T02:55:14;95334.88;;;13.27
61595;BMP280;47397;48.194;11.632;2023-05-10T02:56:23;95340.53;;;13.34
61595;BMP280;47397;48.194;11.632;2023-05-10T02:57:27;95337.81;;;13.38
61595;BMP280;47397;48.194;11.632;2023-05-10T02:58:28;95343.63;;;13.42
61595;BMP280;47397;48.194;11.632;2023-05-10T02:59:29;95333.91;;;13.30
61595;BMP280;47397;48.194;11.632;2023-05-10T03:00:29;95340.69;;;13.31
61595;BMP280;47397;48.194;11.632;2023-05-10T03:01:31;95333.66;;;13.36
61595;BMP280;47397;48.194;11.632;2023-05-10T03:02:31;95337.94;;;13.35
61595;BMP280;47397;48.194;11.632;2023-05-10T03:03:32;95336.09;;;13.39
61595;BMP280;47397;48.194;11.632;2023-05-10T03:04:32;95339.78;;;13.32
61595;BMP280;47397;48.194;11.632;2023-05-10T03:05:34;95335.50;;;13.32
61595;BMP280;47397;48.194;11.632;2023-05-10T03:06:35;95340.31;;;13.40
61595;BMP280;47397;48.194;11.632;2023-05-10T03:07:35;95348.66;;;13.43
61595;BMP280;47397;48.194;11.632;2023-05-10T03:08:36;95337.75;;;13.40
61595;BMP280;47397;48.194;11.632;2023-05-10T03:09:37;95342.88;;;13.40
61595;BMP280;47397;48.194;11.632;2023-05-10T03:10:41;95337.47;;;13.46
61595;BMP280;47397;48.194;11.632;2023-05-10T03:11:50;95333.97;;;13.49
61595;BMP280;47397;48.194;11.632;2023-05-10T03:13:05;95337.28;;;13.51
61595;BMP280;47397;48.194;11.632;2023-05-10T03:14:12;95340.88;;;13.47
61595;BMP280;47397;48.194;11.632;2023-05-10T03:15:22;95340.88;;;13.47
61595;BMP280;47397;48.194;11.632;2023-05-10T03:16:25;95336.94;;;13.58
61595;BMP280;47397;48.194;11.632;2023-05-10T03:17:30;95340.25;;;13.41
61595;BMP280;47397;48.194;11.632;2023-05-10T03:18:37;95348.47;;;13.28
61595;BMP280;47397;48.194;11.632;2023-05-10T03:19:46;95344.34;;;13.25
61595;BMP280;47397;48.194;11.632;2023-05-10T03:20:50;95349.94;;;13.33
61595;BMP280;47397;48.194;11.632;2023-05-10T03:21:53;95351.41;;;13.39
61595;BMP280;47397;48.194;11.632;2023-05-10T03:22:57;95348.84;;;13.39
61595;BMP280;47397;48.194;11.632;2023-05-10T03:23:59;95345.16;;;13.26
61595;BMP280;47397;48.194;11.632;2023-05-10T03:25:06;95349.38;;;13.27
61595;BMP280;47397;48.194;11.632;2023-05-10T03:26:07;95350.13;;;13.29
61595;BMP280;47397;48.194;11.632;2023-05-10T03:27:08;95355.94;;;13.32
61595;BMP280;47397;48.194;11.632;2023-05-10T03:28:09;95355.63;;;13.40
61595;BMP280;47397;48.194;11.632;2023-05-10T03:29:10;95358.03;;;13.43
61595;BMP280;47397;48.194;11.632;2023-05-10T03:30:12;95358.34;;;13.35
61595;BMP280;47397;48.194;11.632;2023-05-10T03:31:13;95355.56;;;13.41
61595;BMP280;47397;48.194;11.632;2023-05-10T03:32:14;95356.63;;;13.36
61595;BMP280;47397;48.194;11.632;2023-05-10T03:33:14;95354.97;;;13.35
61595;BMP280;47397;48.194;11.632;2023-05-10T03:34:15;95353.31;;;13.34
61595;BMP280;47397;48.194;11.632;2023-05-10T03:35:15;95357.16;;;13.24
61595;BMP280;47397;48.194;11.632;2023-05-10T03:36:17;95351.16;;;13.25
61595;BMP280;47397;48.194;11.632;2023-05-10T03:37:18;95360.75;;;13.20
61595;BMP280;47397;48.194;11.632;2023-05-10T03:38:18;95359.84;;;13.21
61595;BMP280;47397;48.194;11.632;2023-05-10T03:39:18;95357.84;;;13.27
61595;BMP280;47397;48.194;11.632;2023-05-10T03:40:19;95357.78;;;13.29
61595;BMP280;47397;48.194;11.632;2023-05-10T03:41:19;95364.22;;;13.37
61595;BMP280;47397;48.194;11.632;2023-05-10T03:42:20;95360.34;;;13.29
61595;BMP280;47397;48.194;11.632;2023-05-10T03:43:20;95362.25;;;13.24
61595;BMP280;47397;48.194;11.632;2023-05-10T03:44:21;95360.53;;;13.24
61595;BMP280;47397;48.194;11.632;2023-05-10T03:45:21;95362.88;;;13.29
61595;BMP280;47397;48.194;11.632;2023-05-10T03:46:21;95360.97;;;13.34
61595;BMP280;47397;48.194;11.632;2023-05-10T03:47:22;95361.09;;;13.31
61595;BMP280;47397;48.194;11.632;2023-05-10T03:48:22;95360.13;;;13.33
61595;BMP280;47397;48.194;11.632;2023-05-10T03:49:23;95364.19;;;13.19
61595;BMP280;47397;48.194;11.632;2023-05-10T03:50:24;95360.59;;;13.23
61595;BMP280;47397;48.194;11.632;2023-05-10T03:51:25;95363.84;;;13.26
61595;BMP280;47397;48.194;11.632;2023-05-10T03:52:26;95362.63;;;13.35
61595;BMP280;47397;48.194;11.632;2023-05-10T03:53:26;95358.41;;;13.34
61595;BMP280;47397;48.194;11.632;2023-05-10T03:54:27;95365.06;;;13.18
61595;BMP280;47397;48.194;11.632;2023-05-10T03:55:27;95371.56;;;13.25
61595;BMP280;47397;48.194;11.632;2023-05-10T03:56:28;95369.78;;;13.27
61595;BMP280;47397;48.194;11.632;2023-05-10T03:57:28;95369.91;;;13.24
61595;BMP280;47397;48.194;11.632;2023-05-10T03:58:28;95368.88;;;13.28
61595;BMP280;47397;48.194;11.632;2023-05-10T03:59:29;95375.03;;;13.24
61595;BMP280;47397;48.194;11.632;2023-05-10T04:00:30;95369.34;;;13.17
61595;BMP280;47397;48.194;11.632;2023-05-10T04:01:30;95372.06;;;13.12
61595;BMP280;47397;48.194;11.632;2023-05-10T04:02:30;95370.06;;;13.21
61595;BMP280;47397;48.194;11.632;2023-05-10T04:03:31;95373.03;;;13.30
61595;BMP280;47397;48.194;11.632;2023-05-10T04:04:31;95372.34;;;13.27
61595;BMP280;47397;48.194;11.632;2023-05-10T04:05:32;95368.25;;;13.23
61595;BMP280;47397;48.194;11.632;2023-05-10T04:06:33;95374.25;;;13.22
61595;BMP280;47397;48.194;11.632;2023-05-10T04:07:34;95374.50;;;13.15
61595;BMP280;47397;48.194;11.632;2023-05-10T04:08:34;95378.06;;;13.11
61595;BMP280;47397;48.194;11.632;2023-05-10T04:09:35;95370.81;;;13.23
61595;BMP280;47397;48.194;11.632;2023-05-10T04:10:35;95375.72;;;13.27
61595;BMP280;47397;48.194;11.632;2023-05-10T04:11:35;95375.09;;;13.22
61595;BMP280;47397;48.194;11.632;2023-05-10T04:12:36;95371.63;;;13.23
61595;BMP280;47397;48.194;11.632;2023-05-10T04:13:36;95374.00;;;13.28
61595;BMP280;47397;48.194;11.632;2023-05-10T04:14:37;95378.84;;;13.34
61595;BMP280;47397;48.194;11.632;2023-05-10T04:15:37;95375.78;;;13.26
61595;BMP280;47397;48.194;11.632;2023-05-10T04:16:38;95368.13;;;13.26
61595;BMP280;47397;48.194;11.632;2023-05-10T04:17:38;95376.53;;;13.28
61595;BMP280;47397;48.194;11.632;2023-05-10T04:18:38;95373.44;;;13.21
61595;BMP280;47397;48.194;11.632;2023-05-10T04:19:39;95372.53;;;13.22
61595;BMP280;47397;48.194;11.632;2023-05-10T04:20:39;95378.53;;;13.21
61595;BMP280;47397;48.194;11.632;2023-05-10T04:21:41;95374.06;;;13.26
61595;BMP280;47397;48.194;11.632;2023-05-10T04:22:41;95373.50;;;13.20
61595;BMP280;47397;48.194;11.632;2023-05-10T04:23:42;95376.41;;;13.31
61595;BMP280;47397;48.194;11.632;2023-05-10T04:24:42;95383.50;;;13.24
61595;BMP280;47397;48.194;11.632;2023-05-10T04:25:43;95381.03;;;13.23
61595;BMP280;47397;48.194;11.632;2023-05-10T04:26:43;95378.13;;;13.30
61595;BMP280;47397;48.194;11.632;2023-05-10T04:27:43;95374.94;;;13.25
61595;BMP280;47397;48.194;11.632;2023-05-10T04:28:44;95381.16;;;13.20
61595;BMP280;47397;48.194;11.632;2023-05-10T04:29:44;95381.03;;;13.23
61595;BMP280;47397;48.194;11.632;2023-05-10T04:30:45;95381.16;;;13.20
61595;BMP280;47397;48.194;11.632;2023-05-10T04:31:46;95385.50;;;13.18
61595;BMP280;47397;48.194;11.632;2023-05-10T04:32:46;95378.91;;;13.12
61595;BMP280;47397;48.194;11.632;2023-05-10T04:33:46;95379.50;;;13.19
61595;BMP280;47397;48.194;11.632;2023-05-10T04:34:47;95380.31;;;13.19
61595;BMP280;47397;48.194;11.632;2023-05-10T04:35:47;95377.72;;;13.21
61595;BMP280;47397;48.194;11.632;2023-05-10T04:36:49;95377.56;;;13.24
61595;BMP280;47397;48.194;11.632;2023-05-10T04:37:50;95380.75;;;13.29
61595;BMP280;47397;48.194;11.632;2023-05-10T04:38:50;95375.91;;;13.23
61595;BMP280;47397;48.194;11.632;2023-05-10T04:39:50;95376.81;;;13.22
61595;BMP280;47397;48.194;11.632;2023-05-10T04:40:51;95378.53;;;13.21
61595;BMP280;47397;48.194;11.632;2023-05-10T04:41:51;95380.06;;;13.25
61595;BMP280;47397;48.194;11.632;2023-05-10T04:42:52;95382.22;;;13.14
61595;BMP280;47397;48.194;11.632;2023-05-10T04:43:52;95380.13;;;13.03
61595;BMP280;47397;48.194;11.632;2023-05-10T04:44:52;95377.09;;;13.14
61595;BMP280;47397;48.194;11.632;2023-05-10T04:45:56;95380.69;;;13.30
61595;BMP280;47397;48.194;11.632;2023-05-10T04:46:56;95387.78;;;13.24
61595;BMP280;47397;48.194;11.632;2023-05-10T04:47:57;95386.13;;;13.23
61595;BMP280;47397;48.194;11.632;2023-05-10T04:48:57;95388.06;;;13.36
61595;BMP280;47397;48.194;11.632;2023-05-10T04:49:57;95385.50;;;13.18
61595;BMP280;47397;48.194;11.632;2023-05-10T04:50:58;95385.72;;;13.11
61595;BMP280;47397;48.194;11.632;2023-05-10T04:52:00;95386.41;;;13.15
61595;BMP280;47397;48.194;11.632;2023-05-10T04:53:00;95385.44;;;13.19
61595;BMP280;47397;48.194;11.632;2023-05-10T04:54:01;95394.91;;;13.15
61595;BMP280;47397;48.194;11.632;2023-05-10T04:55:01;95387.72;;;13.25
61595;BMP280;47397;48.194;11.632;2023-05-10T04:56:02;95386.50;;;13.34
61595;BMP280;47397;48.194;11.632;2023-05-10T04:57:02;95387.66;;;13.27
61595;BMP280;47397;48.194;11.632;2023-05-10T04:58:03;95393.09;;;13.19
61595;BMP280;47397;48.194;11.632;2023-05-10T04:59:03;95387.63;;;13.06
61595;BMP280;47397;48.194;11.632;2023-05-10T05:00:05;95393.25;;;13.14
61595;BMP280;47397;48.194;11.632;2023-05-10T05:01:06;95388.06;;;13.16
61595;BMP280;47397;48.194;11.632;2023-05-10T05:02:06;95396.63;;;13.15
61595;BMP280;47397;48.194;11.632;2023-05-10T05:03:07;95396.25;;;13.24
61595;BMP280;47397;48.194;11.632;2023-05-10T05:04:07;95395.31;;;13.27
61595;BMP280;47397;48.194;11.632;2023-05-10T05:05:08;95396.25;;;13.24
61595;BMP280;47397;48.194;11.632;2023-05-10T05:06:08;95400.13;;;13.12
61595;BMP280;47397;48.194;11.632;2023-05-10T05:07:10;95400.25;;;13.09
61595;BMP280;47397;48.194;11.632;2023-05-10T05:08:10;95397.66;;;13.11
61595;BMP280;47397;48.194;11.632;2023-05-10T05:09:11;95395.94;;;13.11
61595;BMP280;47397;48.194;11.632;2023-05-10T05:10:11;95402.66;;;12.92
61595;BMP280;47397;48.194;11.632;2023-05-10T05:11:12;95406.09;;;12.91
61595;BMP280;47397;48.194;11.632;2023-05-10T05:12:12;95409.78;;;13.06
61595;BMP280;47397;48.194;11.632;2023-05-10T05:13:12;95412.38;;;13.04
61595;BMP280;47397;48.194;11.632;2023-05-10T05:14:13;95415.66;;;12.86
61595;BMP280;47397;48.194;11.632;2023-05-10T05:15:13;95410.19;;;12.75
61595;BMP280;47397;48.194;11.632;2023-05-10T05:16:14;95412.41;;;12.82
61595;BMP280;47397;48.194;11.632;2023-05-10T05:17:14;95419.31;;;12.80
61595;BMP280;47397;48.194;11.632;2023-05-10T05:18:14;95413.75;;;12.71
61595;BMP280;47397;48.194;11.632;2023-05-10T05:19:15;95415.34;;;12.73
61595;BMP280;47397;48.194;11.632;2023-05-10T05:20:15;95419.34;;;12.79
61595;BMP280;47397;48.194;11.632;2023-05-10T05:21:16;95425.22;;;12.81
61595;BMP280;47397;48.194;11.632;2023-05-10T05:22:18;95424.53;;;12.77
61595;BMP280;47397;48.194;11.632;2023-05-10T05:23:19;95429.75;;;12.74
61595;BMP280;47397;48.194;11.632;2023-05-10T05:24:19;95421.72;;;12.83
61595;BMP280;47397;48.194;11.632;2023-05-10T05:25:20;95426.31;;;12.75
61595;BMP280;47397;48.194;11.632;2023-05-10T05:26:20;95431.47;;;12.74
61595;BMP280;47397;48.194;11.632;2023-05-10T05:27:21;95421.16;;;12.55
61595;BMP280;47397;48.194;11.632;2023-05-10T05:28:21;95428.34;;;12.67
61595;BMP280;47397;48.194;11.632;2023-05-10T05:29:22;95425.28;;;12.79
61595;BMP280;47397;48.194;11.632;2023-05-10T05:30:22;95434.47;;;12.83
61595;BMP280;47397;48.194;11.632;2023-05-10T05:31:22;95439.25;;;12.91
61595;BMP280;47397;48.194;11.632;2023-05-10T05:32:23;95443.47;;;12.92
61595;BMP280;47397;48.194;11.632;2023-05-10T05:33:24;95432.69;;;12.86
61595;BMP280;47397;48.194;11.632;2023-05-10T05:34:25;95437.91;;;12.82
61595;BMP280;47397;48.194;11.632;2023-05-10T05:35:25;95445.13;;;12.93
61595;BMP280;47397;48.194;11.632;2023-05-10T05:36:25;95449.06;;;12.80
61595;BMP280;47397;48.194;11.632;2023-05-10T05:37:27;95453.16;;;12.62
61595;BMP280;47397;48.194;11.632;2023-05-10T05:38:28;95447.53;;;12.54
61595;BMP280;47397;48.194;11.632;2023-05-10T05:39:31;95449.06;;;12.58
61595;BMP280;47397;48.194;11.632;2023-05-10T05:40:31;95451.50;;;12.61
61595;BMP280;47397;48.194;11.632;2023-05-10T05:41:32;95452.00;;;12.71
61595;BMP280;47397;48.194;11.632;2023-05-10T05:42:32;95448.34;;;12.55
61595;BMP280;47397;48.194;11.632;2023-05-10T05:43:33;95453.22;;;12.61
61595;BMP280;47397;48.194;11.632;2023-05-10T05:44:33;95455.47;;;12.46
61595;BMP280;47397;48.194;11.632;2023-05-10T05:45:34;95451.91;;;12.50
61595;BMP280;47397;48.194;11.632;2023-05-10T05:46:34;95455.81;;;12.59
61595;BMP280;47397;48.194;11.632;2023-05-10T05:47:34;95453.56;;;12.51
61595;BMP280;47397;48.194;11.632;2023-05-10T05:48:35;95453.13;;;12.64
61595;BMP280;47397;48.194;11.632;2023-05-10T05:49:35;95454.53;;;12.71
61595;BMP280;47397;48.194;11.632;2023-05-10T05:50:36;95454.81;;;12.41
61595;BMP280;47397;48.194;11.632;2023-05-10T05:51:36;95462.00;;;12.53
61595;BMP280;47397;48.194;11.632;2023-05-10T05:52:38;95463.41;;;12.61